sensor_id;sensor_type;location;lat;lon;timestamp;pressure;altitude;pressure_sealevel;temperature;humidity
20145;BME280;10233;50.814;6.590;2023-02-28T00:00:04;101522.28;;;0.42;100.00
20145;BME280;10233;50.814;6.590;2023-02-28T00:01:14;101525.50;;;0.45;100.00
20145;BME280;10233;50.814;6.590;2023-02-28T00:02:19;101517.88;;;0.42;100.00
20145;BME280;10233;50.814;6.590;2023-02-28T00:03:19;101525.91;;;0.39;100.00
20145;BME280;10233;50.814;6.590;2023-02-28T00:04:20;101520.16;;;0.34;100.00
20145;BME280;10233;50.814;6.590;2023-02-28T00:05:22;101520.16;;;0.34;100.00
20145;BME280;10233;50.814;6.590;2023-02-28T00:06:22;101518.50;;;0.33;100.00
20145;BME280;10233;50.814;6.590;2023-02-28T00:07:24;101520.16;;;0.34;100.00
20145;BME280;10233;50.814;6.590;2023-02-28T00:08:24;101522.16;;;0.30;100.00
20145;BME280;10233;50.814;6.590;2023-02-28T00:09:25;101522.25;;;0.29;100.00
20145;BME280;10233;50.814;6.590;2023-02-28T00:10:27;101523.81;;;0.31;100.00
20145;BME280;10233;50.814;6.590;2023-02-28T00:11:28;101524.75;;;0.30;100.00
20145;BME280;10233;50.814;6.590;2023-02-28T00:12:29;101520.59;;;0.28;100.00
20145;BME280;10233;50.814;6.590;2023-02-28T00:13:30;101519.63;;;0.29;100.00
20145;BME280;10233;50.814;6.590;2023-02-28T00:14:30;101516.31;;;0.27;100.00
20145;BME280;10233;50.814;6.590;2023-02-28T00:15:31;101517.03;;;0.29;100.00
20145;BME280;10233;50.814;6.590;2023-02-28T00:16:32;101514.75;;;0.24;100.00
20145;BME280;10233;50.814;6.590;2023-02-28T00:17:33;101518.41;;;0.22;100.00
20145;BME280;10233;50.814;6.590;2023-02-28T00:18:33;101517.44;;;0.23;100.00
20145;BME280;10233;50.814;6.590;2023-02-28T00:19:34;101517.44;;;0.23;100.00
20145;BME280;10233;50.814;6.590;2023-02-28T00:20:34;101520.16;;;0.21;100.00
20145;BME280;10233;50.814;6.590;2023-02-28T00:21:35;101517.69;;;0.20;100.00
20145;BME280;10233;50.814;6.590;2023-02-28T00:22:37;101519.53;;;0.18;100.00
20145;BME280;10233;50.814;6.590;2023-02-28T00:23:37;101521.22;;;0.19;100.00
20145;BME280;10233;50.814;6.590;2023-02-28T00:24:38;101516.13;;;0.17;100.00
20145;BME280;10233;50.814;6.590;2023-02-28T00:25:38;101518.81;;;0.16;100.00
20145;BME280;10233;50.814;6.590;2023-02-28T00:26:39;101518.91;;;0.14;100.00
20145;BME280;10233;50.814;6.590;2023-02-28T00:27:39;101521.53;;;0.14;100.00
20145;BME280;10233;50.814;6.590;2023-02-28T00:28:40;101518.50;;;0.20;100.00
20145;BME280;10233;50.814;6.590;2023-02-28T00:29:40;101521.09;;;0.20;100.00
20145;BME280;10233;50.814;6.590;2023-02-28T00:30:41;101515.97;;;0.19;100.00
20145;BME280;10233;50.814;6.590;2023-02-28T00:31:41;101520.50;;;0.17;100.00
20145;BME280;10233;50.814;6.590;2023-02-28T00:32:42;101516.72;;;0.21;100.00
20145;BME280;10233;50.814;6.590;2023-02-28T00:33:43;101519.44;;;0.19;100.00
20145;BME280;10233;50.814;6.590;2023-02-28T00:34:43;101516.22;;;0.16;100.00
20145;BME280;10233;50.814;6.590;2023-02-28T00:35:44;101522.78;;;0.21;100.00
20145;BME280;10233;50.814;6.590;2023-02-28T00:36:46;101528.44;;;0.15;100.00
20145;BME280;10233;50.814;6.590;2023-02-28T00:37:49;101523.09;;;0.17;100.00
20145;BME280;10233;50.814;6.590;2023-02-28T00:38:49;101514.41;;;0.16;100.00
20145;BME280;10233;50.814;6.590;2023-02-28T00:39:50;101510.97;;;0.16;100.00
20145;BME280;10233;50.814;6.590;2023-02-28T00:40:51;101518.91;;;0.14;100.00
20145;BME280;10233;50.814;6.590;2023-02-28T00:41:51;101516.22;;;0.16;100.00
20145;BME280;10233;50.814;6.590;2023-02-28T00:42:52;101519.88;;;0.13;100.00
20145;BME280;10233;50.814;6.590;2023-02-28T00:43:53;101518.19;;;0.13;100.00
20145;BME280;10233;50.814;6.590;2023-02-28T00:44:53;101527.81;;;0.12;100.00
20145;BME280;10233;50.814;6.590;2023-02-28T00:45:54;101518.28;;;0.11;100.00
20145;BME280;10233;50.814;6.590;2023-02-28T00:46:55;101528.13;;;0.08;100.00
20145;BME280;10233;50.814;6.590;2023-02-28T00:47:58;101528.94;;;0.08;100.00
20145;BME280;10233;50.814;6.590;2023-02-28T00:48:59;101528.00;;;0.09;100.00
20145;BME280;10233;50.814;6.590;2023-02-28T00:50:00;101522.91;;;0.08;100.00
20145;BME280;10233;50.814;6.590;2023-02-28T00:51:00;101520.38;;;0.06;100.00
20145;BME280;10233;50.814;6.590;2023-02-28T00:52:01;101520.38;;;0.06;100.00
20145;BME280;10233;50.814;6.590;2023-02-28T00:53:02;101526.22;;;0.09;100.00
20145;BME280;10233;50.814;6.590;2023-02-28T00:54:02;101524.03;;;0.03;100.00
20145;BME280;10233;50.814;6.590;2023-02-28T00:55:03;101529.56;;;-0.01;100.00
20145;BME280;10233;50.814;6.590;2023-02-28T00:56:04;101524.56;;;-0.04;100.00
20145;BME280;10233;50.814;6.590;2023-02-28T00:57:05;101532.25;;;-0.03;100.00
20145;BME280;10233;50.814;6.590;2023-02-28T00:58:06;101527.34;;;-0.07;100.00
20145;BME280;10233;50.814;6.590;2023-02-28T00:59:06;101524.75;;;-0.07;100.00
20145;BME280;10233;50.814;6.590;2023-02-28T01:00:07;101523.19;;;-0.10;100.00
20145;BME280;10233;50.814;6.590;2023-02-28T01:01:08;101532.78;;;-0.10;100.00
20145;BME280;10233;50.814;6.590;2023-02-28T01:02:09;101533.31;;;-0.05;100.00
20145;BME280;10233;50.814;6.590;2023-02-28T01:03:10;101530.59;;;-0.04;100.00
20145;BME280;10233;50.814;6.590;2023-02-28T01:04:12;101528.09;;;-0.05;100.00
20145;BME280;10233;50.814;6.590;2023-02-28T01:05:12;101526.63;;;-0.09;100.00
20145;BME280;10233;50.814;6.590;2023-02-28T01:06:13;101527.69;;;-0.12;100.00
20145;BME280;10233;50.814;6.590;2023-02-28T01:07:13;101524.94;;;-0.10;100.00
20145;BME280;10233;50.814;6.590;2023-02-28T01:08:14;101533.09;;;-0.15;100.00
20145;BME280;10233;50.814;6.590;2023-02-28T01:09:15;101523.69;;;-0.17;100.00
20145;BME280;10233;50.814;6.590;2023-02-28T01:10:16;101521.16;;;-0.19;100.00
20145;BME280;10233;50.814;6.590;2023-02-28T01:11:17;101527.25;;;-0.18;100.00
20145;BME280;10233;50.814;6.590;2023-02-28T01:12:18;101537.59;;;-0.17;100.00
20145;BME280;10233;50.814;6.590;2023-02-28T01:13:21;101529.75;;;-0.17;100.00
20145;BME280;10233;50.814;6.590;2023-02-28T01:14:23;101534.22;;;-0.19;100.00
20145;BME280;10233;50.814;6.590;2023-02-28T01:15:24;101532.25;;;-0.15;100.00
20145;BME280;10233;50.814;6.590;2023-02-28T01:16:25;101536.66;;;-0.16;100.00
20145;BME280;10233;50.814;6.590;2023-02-28T01:17:26;101521.06;;;-0.17;100.00
20145;BME280;10233;50.814;6.590;2023-02-28T01:18:26;101532.47;;;-0.18;100.00
20145;BME280;10233;50.814;6.590;2023-02-28T01:19:27;101530.91;;;-0.21;100.00
20145;BME280;10233;50.814;6.590;2023-02-28T01:20:27;101532.75;;;-0.23;100.00
20145;BME280;10233;50.814;6.590;2023-02-28T01:21:28;101531.41;;;-0.28;100.00
20145;BME280;10233;50.814;6.590;2023-02-28T01:22:29;101535.59;;;-0.26;100.00
20145;BME280;10233;50.814;6.590;2023-02-28T01:23:30;101536.13;;;-0.21;100.00
20145;BME280;10233;50.814;6.590;2023-02-28T01:24:31;101531.19;;;-0.25;100.00
20145;BME280;10233;50.814;6.590;2023-02-28T01:25:36;101531.09;;;-0.24;100.00
20145;BME280;10233;50.814;6.590;2023-02-28T01:26:38;101538.09;;;-0.24;100.00
20145;BME280;10233;50.814;6.590;2023-02-28T01:27:41;101531.19;;;-0.25;100.00
20145;BME280;10233;50.814;6.590;2023-02-28T01:28:42;101531.91;;;-0.36;100.00
20145;BME280;10233;50.814;6.590;2023-02-28T01:29:42;101530.66;;;-0.30;100.00
20145;BME280;10233;50.814;6.590;2023-02-28T01:30:47;101538.06;;;-0.37;100.00
20145;BME280;10233;50.814;6.590;2023-02-28T01:31:48;101538.91;;;-0.36;100.00
20145;BME280;10233;50.814;6.590;2023-02-28T01:32:49;101538.91;;;-0.36;100.00
20145;BME280;10233;50.814;6.590;2023-02-28T01:33:52;101527.41;;;-0.34;100.00
20145;BME280;10233;50.814;6.590;2023-02-28T01:34:52;101534.72;;;-0.39;100.00
20145;BME280;10233;50.814;6.590;2023-02-28T01:36:00;101537.31;;;-0.39;100.00
20145;BME280;10233;50.814;6.590;2023-02-28T01:37:00;101536.38;;;-0.38;100.00
20145;BME280;10233;50.814;6.590;2023-02-28T01:38:02;101539.84;;;-0.37;100.00
20145;BME280;10233;50.814;6.590;2023-02-28T01:39:03;101537.94;;;-0.35;100.00
20145;BME280;10233;50.814;6.590;2023-02-28T01:40:04;101527.41;;;-0.34;100.00
20145;BME280;10233;50.814;6.590;2023-02-28T01:41:05;101537.13;;;-0.36;100.00
20145;BME280;10233;50.814;6.590;2023-02-28T01:42:09;101535.56;;;-0.38;100.00
20145;BME280;10233;50.814;6.590;2023-02-28T01:43:31;101534.81;;;-0.40;100.00
20145;BME280;10233;50.814;6.590;2023-02-28T01:45:58;101530.53;;;-0.41;100.00
20145;BME280;10233;50.814;6.590;2023-02-28T01:46:59;101528.75;;;-0.41;100.00
20145;BME280;10233;50.814;6.590;2023-02-28T01:48:02;101521.97;;;-0.43;100.00
20145;BME280;10233;50.814;6.590;2023-02-28T01:49:08;101523.63;;;-0.42;100.00
20145;BME280;10233;50.814;6.590;2023-02-28T01:50:12;101521.97;;;-0.43;100.00
20145;BME280;10233;50.814;6.590;2023-02-28T01:51:26;101521.31;;;-0.47;100.00
20145;BME280;10233;50.814;6.590;2023-02-28T01:52:29;101523.19;;;-0.49;100.00
20145;BME280;10233;50.814;6.590;2023-02-28T01:53:34;101522.34;;;-0.49;100.00
20145;BME280;10233;50.814;6.590;2023-02-28T01:54:35;101511.91;;;-0.49;100.00
20145;BME280;10233;50.814;6.590;2023-02-28T01:55:36;101519.44;;;-0.45;100.00
20145;BME280;10233;50.814;6.590;2023-02-28T01:56:37;101519.63;;;-0.48;100.00
20145;BME280;10233;50.814;6.590;2023-02-28T01:57:49;101522.34;;;-0.49;100.00
20145;BME280;10233;50.814;6.590;2023-02-28T01:58:52;101518.06;;;-0.50;100.00
20145;BME280;10233;50.814;6.590;2023-02-28T02:00:15;101514.81;;;-0.54;100.00
20145;BME280;10233;50.814;6.590;2023-02-28T02:01:21;101522.75;;;-0.55;100.00
20145;BME280;10233;50.814;6.590;2023-02-28T02:02:23;101513.97;;;-0.54;100.00
20145;BME280;10233;50.814;6.590;2023-02-28T02:03:24;101514.91;;;-0.55;100.00
20145;BME280;10233;50.814;6.590;2023-02-28T02:04:27;101520.13;;;-0.55;100.00
20145;BME280;10233;50.814;6.590;2023-02-28T02:05:32;101522.47;;;-0.51;100.00
20145;BME280;10233;50.814;6.590;2023-02-28T02:06:40;101520.69;;;-0.50;100.00
20145;BME280;10233;50.814;6.590;2023-02-28T02:07:46;101514.91;;;-0.55;100.00
20145;BME280;10233;50.814;6.590;2023-02-28T02:08:48;101520.69;;;-0.50;100.00
20145;BME280;10233;50.814;6.590;2023-02-28T02:09:49;101512.03;;;-0.51;100.00
20145;BME280;10233;50.814;6.590;2023-02-28T02:10:58;101517.63;;;-0.57;100.00
20145;BME280;10233;50.814;6.590;2023-02-28T02:12:12;101514.38;;;-0.60;100.00
20145;BME280;10233;50.814;6.590;2023-02-28T02:14:54;101508.34;;;-0.61;100.00
20145;BME280;10233;50.814;6.590;2023-02-28T02:21:33;101510.78;;;-0.72;100.00
20145;BME280;10233;50.814;6.590;2023-02-28T02:27:13;101508.38;;;-0.75;100.00
20145;BME280;10233;50.814;6.590;2023-02-28T02:33:41;101506.47;;;-0.85;100.00
20145;BME280;10233;50.814;6.590;2023-02-28T02:36:11;101504.44;;;-0.94;100.00
20145;BME280;10233;50.814;6.590;2023-02-28T02:38:58;101502.94;;;-0.98;100.00
20145;BME280;10233;50.814;6.590;2023-02-28T02:40:08;101502.84;;;-0.97;100.00
20145;BME280;10233;50.814;6.590;2023-02-28T02:41:44;101504.66;;;-0.97;100.00
20145;BME280;10233;50.814;6.590;2023-02-28T02:43:53;101507.78;;;-0.92;100.00
20145;BME280;10233;50.814;6.590;2023-02-28T02:45:12;101505.28;;;-0.94;100.00
20145;BME280;10233;50.814;6.590;2023-02-28T02:46:21;101498.41;;;-0.95;100.00
20145;BME280;10233;50.814;6.590;2023-02-28T02:47:24;101497.53;;;-0.95;100.00
20145;BME280;10233;50.814;6.590;2023-02-28T02:48:30;101502.03;;;-0.97;100.00
20145;BME280;10233;50.814;6.590;2023-02-28T02:49:33;101501.63;;;-0.91;100.00
20145;BME280;10233;50.814;6.590;2023-02-28T02:50:43;101498.41;;;-0.95;100.00
20145;BME280;10233;50.814;6.590;2023-02-28T02:51:46;101503.31;;;-0.90;100.00
20145;BME280;10233;50.814;6.590;2023-02-28T02:52:52;101507.78;;;-0.92;100.00
20145;BME280;10233;50.814;6.590;2023-02-28T02:54:13;101500.06;;;-0.94;100.00
20145;BME280;10233;50.814;6.590;2023-02-28T02:55:17;101502.75;;;-0.95;100.00
20145;BME280;10233;50.814;6.590;2023-02-28T02:56:24;101502.13;;;-0.99;100.00
20145;BME280;10233;50.814;6.590;2023-02-28T02:57:42;101503.88;;;-0.99;100.00
20145;BME280;10233;50.814;6.590;2023-02-28T02:58:49;101509.47;;;-0.91;100.00
20145;BME280;10233;50.814;6.590;2023-02-28T02:59:54;101505.19;;;-0.92;100.00
20145;BME280;10233;50.814;6.590;2023-02-28T03:00:59;101501.63;;;-0.91;100.00
20145;BME280;10233;50.814;6.590;2023-02-28T03:02:04;101500.50;;;-0.87;100.00
20145;BME280;10233;50.814;6.590;2023-02-28T03:03:09;101499.34;;;-0.83;100.00
20145;BME280;10233;50.814;6.590;2023-02-28T03:04:16;101501.53;;;-0.90;100.00
20145;BME280;10233;50.814;6.590;2023-02-28T03:05:26;101500.88;;;-0.93;100.00
20145;BME280;10233;50.814;6.590;2023-02-28T03:06:29;101504.25;;;-0.91;100.00
20145;BME280;10233;50.814;6.590;2023-02-28T03:07:29;101498.00;;;-0.89;100.00
20145;BME280;10233;50.814;6.590;2023-02-28T03:08:37;101505.72;;;-0.87;100.00
20145;BME280;10233;50.814;6.590;2023-02-28T03:09:38;101503.13;;;-0.87;100.00
20145;BME280;10233;50.814;6.590;2023-02-28T03:10:42;101507.59;;;-0.89;100.00
20145;BME280;10233;50.814;6.590;2023-02-28T03:11:43;101504.69;;;-0.85;100.00
20145;BME280;10233;50.814;6.590;2023-02-28T03:12:53;101501.34;;;-0.87;100.00
20145;BME280;10233;50.814;6.590;2023-02-28T03:15:25;101499.56;;;-0.86;100.00
20145;BME280;10233;50.814;6.590;2023-02-28T03:19:14;101493.59;;;-0.88;100.00
20145;BME280;10233;50.814;6.590;2023-02-28T03:20:37;101496.31;;;-0.90;100.00
20145;BME280;10233;50.814;6.590;2023-02-28T03:24:19;101490.25;;;-0.90;100.00
20145;BME280;10233;50.814;6.590;2023-02-28T03:27:01;101491.22;;;-0.91;100.00
20145;BME280;10233;50.814;6.590;2023-02-28T03:29:26;101492.47;;;-0.84;100.00
20145;BME280;10233;50.814;6.590;2023-02-28T03:30:51;101490.72;;;-0.84;100.00
20145;BME280;10233;50.814;6.590;2023-02-28T03:34:37;101486.00;;;-0.91;100.00
20145;BME280;10233;50.814;6.590;2023-02-28T03:36:15;101488.28;;;-0.87;100.00
20145;BME280;10233;50.814;6.590;2023-02-28T03:37:12;101487.97;;;-0.95;100.00
20145;BME280;10233;50.814;6.590;2023-02-28T03:38:34;101491.94;;;-0.89;100.00
20145;BME280;10233;50.814;6.590;2023-02-28T03:39:42;101488.50;;;-0.90;100.00
20145;BME280;10233;50.814;6.590;2023-02-28T03:40:50;101491.13;;;-0.90;100.00
20145;BME280;10233;50.814;6.590;2023-02-28T03:41:57;101486.31;;;-0.83;100.00
20145;BME280;10233;50.814;6.590;2023-02-28T03:43:03;101485.69;;;-0.87;100.00
20145;BME280;10233;50.814;6.590;2023-02-28T03:44:18;101488.38;;;-0.88;100.00
20145;BME280;10233;50.814;6.590;2023-02-28T03:45:23;101488.38;;;-0.88;100.00
20145;BME280;10233;50.814;6.590;2023-02-28T03:46:29;101489.22;;;-0.88;100.00
20145;BME280;10233;50.814;6.590;2023-02-28T03:47:39;101487.66;;;-0.90;100.00
20145;BME280;10233;50.814;6.590;2023-02-28T03:48:44;101488.19;;;-0.85;100.00
20145;BME280;10233;50.814;6.590;2023-02-28T03:49:54;101490.09;;;-0.87;100.00
20145;BME280;10233;50.814;6.590;2023-02-28T03:50:58;101487.47;;;-0.87;100.00
20145;BME280;10233;50.814;6.590;2023-02-28T03:52:02;101493.59;;;-0.88;100.00
20145;BME280;10233;50.814;6.590;2023-02-28T03:53:25;101483.91;;;-0.86;100.00
20145;BME280;10233;50.814;6.590;2023-02-28T03:54:30;101483.16;;;-0.88;100.00
20145;BME280;10233;50.814;6.590;2023-02-28T03:55:38;101485.69;;;-0.87;100.00
20145;BME280;10233;50.814;6.590;2023-02-28T03:56:45;101486.53;;;-0.86;100.00
20145;BME280;10233;50.814;6.590;2023-02-28T03:57:56;101486.31;;;-0.83;100.00
20145;BME280;10233;50.814;6.590;2023-02-28T03:59:09;101482.78;;;-0.82;100.00
20145;BME280;10233;50.814;6.590;2023-02-28T04:00:25;101489.69;;;-0.81;100.00
20145;BME280;10233;50.814;6.590;2023-02-28T04:01:40;101489.78;;;-0.83;100.00
20145;BME280;10233;50.814;6.590;2023-02-28T04:02:41;101481.66;;;-0.78;100.00
20145;BME280;10233;50.814;6.590;2023-02-28T04:03:42;101486.56;;;-0.74;100.00
20145;BME280;10233;50.814;6.590;2023-02-28T04:04:42;101486.38;;;-0.71;100.00
20145;BME280;10233;50.814;6.590;2023-02-28T04:05:53;101483.66;;;-0.69;100.00
20145;BME280;10233;50.814;6.590;2023-02-28T04:07:06;101492.03;;;-0.64;100.00
20145;BME280;10233;50.814;6.590;2023-02-28T04:08:07;101491.94;;;-0.63;100.00
20145;BME280;10233;50.814;6.590;2023-02-28T04:09:10;101489.94;;;-0.59;100.00
20145;BME280;10233;50.814;6.590;2023-02-28T04:10:11;101500.09;;;-0.55;100.00
20145;BME280;10233;50.814;6.590;2023-02-28T04:12:32;101494.78;;;-0.53;100.00
20145;BME280;10233;50.814;6.590;2023-02-28T04:13:32;101492.19;;;-0.53;100.00
20145;BME280;10233;50.814;6.590;2023-02-28T04:14:33;101493.63;;;-0.49;100.00
20145;BME280;10233;50.814;6.590;2023-02-28T04:15:33;101493.00;;;-0.53;100.00
20145;BME280;10233;50.814;6.590;2023-02-28T04:16:36;101487.50;;;-0.48;100.00
20145;BME280;10233;50.814;6.590;2023-02-28T04:17:37;101491.00;;;-0.49;100.00
20145;BME280;10233;50.814;6.590;2023-02-28T04:18:38;101492.72;;;-0.48;100.00
20145;BME280;10233;50.814;6.590;2023-02-28T04:19:39;101493.13;;;-0.42;100.00
20145;BME280;10233;50.814;6.590;2023-02-28T04:20:40;101495.09;;;-0.45;100.00
20145;BME280;10233;50.814;6.590;2023-02-28T04:21:43;101492.91;;;-0.51;100.00
20145;BME280;10233;50.814;6.590;2023-02-28T04:22:44;101495.50;;;-0.51;100.00
20145;BME280;10233;50.814;6.590;2023-02-28T04:23:45;101500.81;;;-0.53;100.00
20145;BME280;10233;50.814;6.590;2023-02-28T04:24:46;101503.53;;;-0.54;100.00
20145;BME280;10233;50.814;6.590;2023-02-28T04:25:46;101500.72;;;-0.51;100.00
20145;BME280;10233;50.814;6.590;2023-02-28T04:26:49;101506.13;;;-0.54;100.00
20145;BME280;10233;50.814;6.590;2023-02-28T04:27:50;101505.22;;;-0.53;100.00
20145;BME280;10233;50.814;6.590;2023-02-28T04:28:51;101500.91;;;-0.54;100.00
20145;BME280;10233;50.814;6.590;2023-02-28T04:29:51;101500.19;;;-0.56;100.00
20145;BME280;10233;50.814;6.590;2023-02-28T04:30:59;101492.56;;;-0.59;100.00
20145;BME280;10233;50.814;6.590;2023-02-28T04:32:01;101500.38;;;-0.59;100.00
20145;BME280;10233;50.814;6.590;2023-02-28T04:33:02;101497.69;;;-0.58;100.00
20145;BME280;10233;50.814;6.590;2023-02-28T04:34:03;101497.25;;;-0.64;100.00
20145;BME280;10233;50.814;6.590;2023-02-28T04:35:04;101498.19;;;-0.65;100.00
20145;BME280;10233;50.814;6.590;2023-02-28T04:36:07;101495.13;;;-0.72;100.00
20145;BME280;10233;50.814;6.590;2023-02-28T04:37:08;101495.13;;;-0.72;100.00
20145;BME280;10233;50.814;6.590;2023-02-28T04:38:09;101500.75;;;-0.78;100.00
20145;BME280;10233;50.814;6.590;2023-02-28T04:39:09;101498.91;;;-0.76;100.00
20145;BME280;10233;50.814;6.590;2023-02-28T04:40:10;101501.78;;;-0.80;100.00
20145;BME280;10233;50.814;6.590;2023-02-28T04:41:12;101496.56;;;-0.80;100.00
20145;BME280;10233;50.814;6.590;2023-02-28T04:42:12;101504.78;;;-0.86;100.00
20145;BME280;10233;50.814;6.590;2023-02-28T04:43:13;101501.97;;;-0.83;100.00
20145;BME280;10233;50.814;6.590;2023-02-28T04:44:14;101493.31;;;-0.84;100.00
20145;BME280;10233;50.814;6.590;2023-02-28T04:45:15;101505.91;;;-0.90;100.00
20145;BME280;10233;50.814;6.590;2023-02-28T04:46:17;101502.75;;;-0.95;100.00
20145;BME280;10233;50.814;6.590;2023-02-28T04:47:18;101504.53;;;-0.96;100.00
20145;BME280;10233;50.814;6.590;2023-02-28T04:48:19;101508.72;;;-0.93;100.00
20145;BME280;10233;50.814;6.590;2023-02-28T04:49:19;101507.97;;;-0.95;100.00
20145;BME280;10233;50.814;6.590;2023-02-28T04:50:19;101506.09;;;-0.93;100.00
20145;BME280;10233;50.814;6.590;2023-02-28T04:51:20;101507.88;;;-0.94;100.00
20145;BME280;10233;50.814;6.590;2023-02-28T04:52:20;101509.00;;;-0.98;100.00
20145;BME280;10233;50.814;6.590;2023-02-28T04:53:21;101510.13;;;-1.02;100.00
20145;BME280;10233;50.814;6.590;2023-02-28T04:54:22;101506.97;;;-1.07;100.00
20145;BME280;10233;50.814;6.590;2023-02-28T04:55:22;101509.69;;;-1.08;100.00
20145;BME280;10233;50.814;6.590;2023-02-28T04:56:22;101510.53;;;-1.08;100.00
20145;BME280;10233;50.814;6.590;2023-02-28T04:57:23;101511.56;;;-1.10;100.00
20145;BME280;10233;50.814;6.590;2023-02-28T04:58:24;101511.94;;;-1.02;100.00
20145;BME280;10233;50.814;6.590;2023-02-28T04:59:24;101510.84;;;-1.12;100.00
20145;BME280;10233;50.814;6.590;2023-02-28T05:00:25;101509.25;;;-1.15;100.00
20145;BME280;10233;50.814;6.590;2023-02-28T05:01:28;101513.88;;;-1.20;100.00
20145;BME280;10233;50.814;6.590;2023-02-28T05:02:29;101508.31;;;-1.14;100.00
20145;BME280;10233;50.814;6.590;2023-02-28T05:03:30;101516.78;;;-1.24;100.00
20145;BME280;10233;50.814;6.590;2023-02-28T05:04:30;101513.47;;;-1.26;100.00
20145;BME280;10233;50.814;6.590;2023-02-28T05:05:34;101509.16;;;-1.27;100.00
20145;BME280;10233;50.814;6.590;2023-02-28T05:06:34;101508.41;;;-1.29;100.00
20145;BME280;10233;50.814;6.590;2023-02-28T05:07:35;101516.97;;;-1.27;100.00
20145;BME280;10233;50.814;6.590;2023-02-28T05:08:35;101510.94;;;-1.28;100.00
20145;BME280;10233;50.814;6.590;2023-02-28T05:09:36;101515.31;;;-1.28;100.00
20145;BME280;10233;50.814;6.590;2023-02-28T05:10:36;101515.06;;;-1.38;100.00
20145;BME280;10233;50.814;6.590;2023-02-28T05:11:37;101521.47;;;-1.43;100.00
20145;BME280;10233;50.814;6.590;2023-02-28T05:12:38;101522.31;;;-1.43;100.00
20145;BME280;10233;50.814;6.590;2023-02-28T05:13:39;101523.25;;;-1.44;100.00
20145;BME280;10233;50.814;6.590;2023-02-28T05:14:39;101530.22;;;-1.44;100.00
20145;BME280;10233;50.814;6.590;2023-02-28T05:15:40;101527.63;;;-1.44;100.00
20145;BME280;10233;50.814;6.590;2023-02-28T05:16:40;101525.94;;;-1.45;100.00
20145;BME280;10233;50.814;6.590;2023-02-28T05:17:41;101526.88;;;-1.46;100.00
20145;BME280;10233;50.814;6.590;2023-02-28T05:18:42;101524.84;;;-1.41;100.00
20145;BME280;10233;50.814;6.590;2023-02-28T05:19:43;101530.22;;;-1.44;100.00
20145;BME280;10233;50.814;6.590;2023-02-28T05:20:43;101527.78;;;-1.47;100.00
20145;BME280;10233;50.814;6.590;2023-02-28T05:21:52;101528.72;;;-1.48;100.00
20145;BME280;10233;50.814;6.590;2023-02-28T05:22:53;101528.63;;;-1.47;100.00
20145;BME280;10233;50.814;6.590;2023-02-28T05:23:54;101519.06;;;-1.46;100.00
20145;BME280;10233;50.814;6.590;2023-02-28T05:24:55;101530.41;;;-1.47;100.00
20145;BME280;10233;50.814;6.590;2023-02-28T05:25:55;101524.16;;;-1.45;100.00
20145;BME280;10233;50.814;6.590;2023-02-28T05:26:56;101529.66;;;-1.49;100.00
20145;BME280;10233;50.814;6.590;2023-02-28T05:27:57;101522.97;;;-1.53;100.00
20145;BME280;10233;50.814;6.590;2023-02-28T05:28:57;101524.53;;;-1.51;100.00
20145;BME280;10233;50.814;6.590;2023-02-28T05:29:58;101522.97;;;-1.53;100.00
20145;BME280;10233;50.814;6.590;2023-02-28T05:30:59;101521.38;;;-1.56;100.00
20145;BME280;10233;50.814;6.590;2023-02-28T05:31:59;101519.97;;;-1.61;100.00
20145;BME280;10233;50.814;6.590;2023-02-28T05:33:00;101521.28;;;-1.54;100.00
20145;BME280;10233;50.814;6.590;2023-02-28T05:34:00;101525.56;;;-1.53;100.00
20145;BME280;10233;50.814;6.590;2023-02-28T05:35:01;101522.78;;;-1.50;100.00
20145;BME280;10233;50.814;6.590;2023-02-28T05:36:02;101523.81;;;-1.53;100.00
20145;BME280;10233;50.814;6.590;2023-02-28T05:37:02;101522.03;;;-1.52;100.00
20145;BME280;10233;50.814;6.590;2023-02-28T05:38:03;101519.16;;;-1.48;100.00
20145;BME280;10233;50.814;6.590;2023-02-28T05:39:05;101514.13;;;-1.51;100.00
20145;BME280;10233;50.814;6.590;2023-02-28T05:40:06;101521.84;;;-1.49;100.00
20145;BME280;10233;50.814;6.590;2023-02-28T05:41:10;101522.56;;;-1.47;100.00
20145;BME280;10233;50.814;6.590;2023-02-28T05:42:11;101527.06;;;-1.49;100.00
20145;BME280;10233;50.814;6.590;2023-02-28T05:43:12;101522.03;;;-1.52;100.00
20145;BME280;10233;50.814;6.590;2023-02-28T05:44:12;101527.06;;;-1.49;100.00
20145;BME280;10233;50.814;6.590;2023-02-28T05:45:13;101531.63;;;-1.53;100.00
20145;BME280;10233;50.814;6.590;2023-02-28T05:46:14;101524.53;;;-1.51;100.00
20145;BME280;10233;50.814;6.590;2023-02-28T05:47:15;101519.78;;;-1.58;100.00
20145;BME280;10233;50.814;6.590;2023-02-28T05:48:17;101530.78;;;-1.53;100.00
20145;BME280;10233;50.814;6.590;2023-02-28T05:49:18;101525.78;;;-1.56;100.00
20145;BME280;10233;50.814;6.590;2023-02-28T05:50:18;101524.06;;;-1.57;100.00
20145;BME280;10233;50.814;6.590;2023-02-28T05:51:19;101519.41;;;-1.52;100.00
20145;BME280;10233;50.814;6.590;2023-02-28T05:52:20;101526.69;;;-1.57;100.00
20145;BME280;10233;50.814;6.590;2023-02-28T05:53:20;101523.16;;;-1.56;100.00
20145;BME280;10233;50.814;6.590;2023-02-28T05:54:21;101529.66;;;-1.63;100.00
20145;BME280;10233;50.814;6.590;2023-02-28T05:55:21;101525.19;;;-1.61;100.00
20145;BME280;10233;50.814;6.590;2023-02-28T05:56:22;101524.44;;;-1.63;100.00
20145;BME280;10233;50.814;6.590;2023-02-28T05:57:23;101530.22;;;-1.58;100.00
20145;BME280;10233;50.814;6.590;2023-02-28T05:58:24;101526.13;;;-1.62;100.00
20145;BME280;10233;50.814;6.590;2023-02-28T05:59:25;101525.38;;;-1.64;100.00
20145;BME280;10233;50.814;6.590;2023-02-28T06:00:26;101529.84;;;-1.66;100.00
20145;BME280;10233;50.814;6.590;2023-02-28T06:01:38;101526.97;;;-1.62;100.00
20145;BME280;10233;50.814;6.590;2023-02-28T06:02:40;101525.00;;;-1.58;100.00
20145;BME280;10233;50.814;6.590;2023-02-28T06:03:40;101524.63;;;-1.66;100.00